Who's Online

We have 2 guests online

GK Weather

An error occured during parsing XML data. Please try again.

Aviation WX

[source: ADDS]
METAR
KIAD 211952Z 30011KT 10SM FEW050 01/M14 A3047 RMK AO2 SLP320 T00111144 =
TAF
KIAD 211736Z 2118/2224 32011G20KT P6SM SKC FM212100 31010KT P6SM SKC FM212300 32006KT P6SM SKC FM221400 19006KT P6SM FEW250 =
SR / SS: 01:39 / 11:36 UTC (Washington-Dulles 2014-11-21)

JoomlaWatch Agent

Home Links
We are regularly out on the Web. When we find a great site we list it.